Time;durP1;ratioP1;P1;durP2;ratioP2;P2;SDS_P1;SDS_P2;PMS_P1;PMS_P2;Temp;Humidity;BMP_temperature;BMP_pressure;BME280_temperature;BME280_humidity;BME280_pressure;Samples;Min_cycle;Max_cycle;Signal;HPM_P1;HPM_P2
2021/12/21 00:04:55;;;;;;;17.00;7.00;;;;;;;;;;10330965;28;20065;-80
2021/12/21 00:09:55;;;;;;;8.73;5.63;;;;;;;;;;10316938;28;20503;-79
2021/12/21 00:24:59;;;;;;;14.53;6.13;;;;;;;;;;10333364;28;20813;-79
2021/12/21 00:29:59;;;;;;;21.70;5.67;;;;;;;;;;10326578;28;20429;-80
2021/12/21 00:35:00;;;;;;;11.03;6.37;;;;;;;;;;10325643;28;20061;-80
2021/12/21 00:40:00;;;;;;;9.07;6.03;;;;;;;;;;10331757;28;20026;-80
2021/12/21 00:45:00;;;;;;;9.73;5.33;;;;;;;;;;10332697;28;20972;-80
2021/12/21 00:50:03;;;;;;;8.20;5.07;;;;;;;;;;10333401;28;20041;-80
2021/12/21 00:55:04;;;;;;;8.57;5.70;;;;;;;;;;10349261;28;21012;-80
2021/12/21 01:00:06;;;;;;;8.23;5.80;;;;;;;;;;10349482;28;20117;-80
2021/12/21 01:05:14;;;;;;;7.95;5.45;;;;;;;;;;10333538;28;20038;-80
2021/12/21 01:15:46;;;;;;;9.98;6.20;;;;;;;;;;10347575;28;20440;-80
2021/12/21 01:21:02;;;;;;;6.85;5.03;;;;;;;;;;10333340;28;20101;-80
2021/12/21 01:26:14;;;;;;;9.05;5.53;;;;;;;;;;10331734;28;20039;-80
2021/12/21 01:31:24;;;;;;;8.63;4.78;;;;;;;;;;10335270;28;20045;-80
2021/12/21 01:36:45;;;;;;;8.38;5.28;;;;;;;;;;10356115;28;20380;-79
2021/12/21 01:42:00;;;;;;;7.45;5.05;;;;;;;;;;10340185;28;20117;-81
2021/12/21 01:52:21;;;;;;;;;;;;;;;;;;10341131;28;20049;-81
2021/12/21 01:57:22;;;;;;;6.72;4.53;;;;;;;;;;10339009;28;20001;-81
2021/12/21 02:02:22;;;;;;;6.88;4.95;;;;;;;;;;10354719;28;20034;-81
2021/12/21 02:07:23;;;;;;;7.38;4.88;;;;;;;;;;10341648;28;20031;-81
2021/12/21 02:12:23;;;;;;;7.10;4.67;;;;;;;;;;10340915;28;20066;-81
2021/12/21 02:17:57;;;;;;;7.32;4.90;;;;;;;;;;10355429;28;20874;-80
2021/12/21 02:22:58;;;;;;;5.78;4.63;;;;;;;;;;10340370;28;20069;-80
2021/12/21 02:28:22;;;;;;;9.52;4.72;;;;;;;;;;10339962;28;20043;-80
2021/12/21 02:33:24;;;;;;;6.35;4.45;;;;;;;;;;10339479;28;20392;-80
2021/12/21 02:38:26;;;;;;;7.45;5.00;;;;;;;;;;10337727;28;20463;-80
2021/12/21 02:43:28;;;;;;;6.97;4.60;;;;;;;;;;10353563;28;20424;-80
2021/12/21 02:48:28;;;;;;;5.93;4.47;;;;;;;;;;10353629;28;20431;-80
2021/12/21 02:53:30;;;;;;;6.10;4.53;;;;;;;;;;10338913;28;20034;-81
2021/12/21 02:58:31;;;;;;;6.95;4.43;;;;;;;;;;10337785;28;20092;-80
2021/12/21 03:03:31;;;;;;;8.40;4.85;;;;;;;;;;10353738;28;20120;-81
2021/12/21 03:08:44;;;;;;;6.80;4.50;;;;;;;;;;10353575;28;20050;-80
2021/12/21 03:14:18;;;;;;;7.82;4.72;;;;;;;;;;10337621;28;20085;-80
2021/12/21 03:19:12;;;;;;;7.85;4.65;;;;;;;;;;10334514;28;20125;-80
2021/12/21 03:24:12;;;;;;;5.90;4.57;;;;;;;;;;10337174;28;20571;-80
2021/12/21 03:29:13;;;;;;;5.57;4.43;;;;;;;;;;10335392;28;20069;-80
2021/12/21 03:34:13;;;;;;;9.35;4.22;;;;;;;;;;10337235;28;20376;-80
2021/12/21 03:39:18;;;;;;;6.43;4.22;;;;;;;;;;10335969;28;20468;-80
2021/12/21 03:44:20;;;;;;;5.93;4.50;;;;;;;;;;10351620;28;20160;-80
2021/12/21 03:54:33;;;;;;;4.93;4.07;;;;;;;;;;10350458;28;20038;-80
2021/12/21 03:59:33;;;;;;;5.53;4.18;;;;;;;;;;10332507;28;20034;-80
2021/12/21 04:04:34;;;;;;;4.32;3.63;;;;;;;;;;10336364;28;20026;-81
2021/12/21 04:09:35;;;;;;;6.18;4.00;;;;;;;;;;10335529;28;20038;-81
2021/12/21 04:14:36;;;;;;;6.82;3.85;;;;;;;;;;10350764;28;20041;-80
2021/12/21 04:19:37;;;;;;;5.10;3.92;;;;;;;;;;10334524;28;20034;-80
2021/12/21 04:24:37;;;;;;;5.40;4.07;;;;;;;;;;10334634;28;20097;-80
2021/12/21 04:29:38;;;;;;;5.50;4.15;;;;;;;;;;10334039;28;20448;-80
2021/12/21 04:34:39;;;;;;;6.60;4.33;;;;;;;;;;10350193;28;20061;-80
2021/12/21 04:39:49;;;;;;;7.20;4.47;;;;;;;;;;10334839;28;20545;-79
2021/12/21 04:44:49;;;;;;;6.18;4.07;;;;;;;;;;10333968;28;20034;-80
2021/12/21 04:49:49;;;;;;;5.10;3.93;;;;;;;;;;10333921;28;20101;-80
2021/12/21 04:54:50;;;;;;;5.30;3.70;;;;;;;;;;10334286;28;20440;-80
2021/12/21 04:59:50;;;;;;;4.80;3.55;;;;;;;;;;10333692;28;20088;-80
2021/12/21 05:04:51;;;;;;;6.10;3.88;;;;;;;;;;10333236;28;20469;-80
2021/12/21 05:09:56;;;;;;;4.68;3.92;;;;;;;;;;10332769;28;20022;-80
2021/12/21 05:14:57;;;;;;;5.50;4.30;;;;;;;;;;10333798;28;20109;-80
2021/12/21 05:19:57;;;;;;;5.45;3.60;;;;;;;;;;10332661;28;20109;-80
2021/12/21 05:24:58;;;;;;;4.80;3.47;;;;;;;;;;10334084;28;20137;-79
2021/12/21 05:29:58;;;;;;;4.17;3.43;;;;;;;;;;10332910;28;20934;-79
2021/12/21 05:34:59;;;;;;;6.07;3.55;;;;;;;;;;10333166;28;20531;-79
2021/12/21 05:40:11;;;;;;;6.23;3.73;;;;;;;;;;10333192;28;20357;-79
2021/12/21 05:45:13;;;;;;;8.82;4.00;;;;;;;;;;10332378;28;20440;-80
2021/12/21 05:50:16;;;;;;;4.95;3.45;;;;;;;;;;10348247;28;20468;-80
2021/12/21 05:55:18;;;;;;;4.45;3.17;;;;;;;;;;10332334;28;20026;-80
2021/12/21 06:00:25;;;;;;;4.47;3.80;;;;;;;;;;10329995;28;20042;-81
2021/12/21 06:05:36;;;;;;;7.10;5.10;;;;;;;;;;10292563;28;20069;-80
2021/12/21 06:10:40;;;;;;;6.05;5.10;;;;;;;;;;10317766;28;20097;-80
2021/12/21 06:26:08;;;;;;;9.70;8.90;;;;;;;;;;10352710;28;20109;-81
2021/12/21 06:31:09;;;;;;;5.68;4.68;;;;;;;;;;10339942;28;20038;-80
2021/12/21 06:36:10;;;;;;;6.25;4.57;;;;;;;;;;10355004;28;20030;-80
2021/12/21 06:41:11;;;;;;;5.75;5.13;;;;;;;;;;10339058;28;20074;-81
2021/12/21 06:46:19;;;;;;;5.28;4.78;;;;;;;;;;10354246;28;20448;-80
2021/12/21 06:51:34;;;;;;;5.07;4.60;;;;;;;;;;10353120;28;20041;-81
2021/12/21 06:56:34;;;;;;;5.90;5.20;;;;;;;;;;10338221;28;20041;-82
2021/12/21 07:01:37;;;;;;;18.05;6.22;;;;;;;;;;10339077;28;20034;-82
2021/12/21 07:06:40;;;;;;;21.20;5.72;;;;;;;;;;10329185;28;20092;-84
2021/12/21 07:11:44;;;;;;;6.82;4.78;;;;;;;;;;10350711;28;20050;-82
2021/12/21 07:22:05;;;;;;;16.35;5.13;;;;;;;;;;10349726;28;20074;-82
2021/12/21 07:27:06;;;;;;;8.25;3.45;;;;;;;;;;10319120;28;20073;-82
2021/12/21 07:32:07;;;;;;;21.98;4.28;;;;;;;;;;10334147;28;20026;-82
2021/12/21 07:37:09;;;;;;;6.97;3.78;;;;;;;;;;10336941;28;20460;-82
2021/12/21 07:42:10;;;;;;;8.55;3.35;;;;;;;;;;10337009;28;20065;-82
2021/12/21 07:47:10;;;;;;;8.65;3.47;;;;;;;;;;10350981;28;20062;-82
2021/12/21 07:52:11;;;;;;;9.13;4.15;;;;;;;;;;10336155;28;20030;-82
2021/12/21 07:57:12;;;;;;;11.75;3.85;;;;;;;;;;10336527;28;20046;-81
2021/12/21 08:02:12;;;;;;;7.57;4.20;;;;;;;;;;10353203;28;20034;-81
2021/12/21 08:07:17;;;;;;;7.05;3.42;;;;;;;;;;10336403;28;20113;-81
2021/12/21 08:12:19;;;;;;;10.68;3.13;;;;;;;;;;10336323;28;20026;-81
2021/12/21 08:17:20;;;;;;;8.77;3.95;;;;;;;;;;10335184;28;20121;-81
2021/12/21 08:22:20;;;;;;;5.68;3.42;;;;;;;;;;10387485;23;20140;-79
2021/12/21 08:27:20;;;;;;;6.67;3.67;;;;;;;;;;10380179;28;20026;-79
2021/12/21 08:32:21;;;;;;;7.95;4.05;;;;;;;;;;10368782;28;20512;-79
2021/12/21 08:37:21;;;;;;;8.73;3.80;;;;;;;;;;10360812;28;20033;-79
2021/12/21 08:42:24;;;;;;;9.52;3.75;;;;;;;;;;10362309;28;20057;-79
2021/12/21 08:47:27;;;;;;;7.05;3.80;;;;;;;;;;10365687;28;20048;-79
2021/12/21 08:52:28;;;;;;;8.25;4.30;;;;;;;;;;10365382;28;20141;-79
2021/12/21 08:57:29;;;;;;;8.05;3.70;;;;;;;;;;10367441;28;20476;-81
2021/12/21 09:02:33;;;;;;;6.18;3.58;;;;;;;;;;10384014;28;20030;-78
2021/12/21 09:07:35;;;;;;;8.40;3.60;;;;;;;;;;10357542;28;20054;-79
2021/12/21 09:12:35;;;;;;;7.40;3.92;;;;;;;;;;10354545;28;20049;-81
2021/12/21 09:17:36;;;;;;;6.22;3.70;;;;;;;;;;10356610;28;20045;-79
2021/12/21 09:22:37;;;;;;;6.70;3.67;;;;;;;;;;10382764;28;20073;-79
2021/12/21 09:27:38;;;;;;;9.93;3.60;;;;;;;;;;10384324;28;20368;-79
2021/12/21 09:32:39;;;;;;;9.68;3.55;;;;;;;;;;10385093;28;20456;-79
2021/12/21 09:37:39;;;;;;;7.18;3.95;;;;;;;;;;10380296;28;20120;-79
2021/12/21 09:42:40;;;;;;;6.10;3.50;;;;;;;;;;10367046;28;20061;-78
2021/12/21 09:47:41;;;;;;;8.43;4.13;;;;;;;;;;10356328;28;20034;-79
2021/12/21 09:52:41;;;;;;;9.75;4.53;;;;;;;;;;10366045;28;20027;-78
2021/12/21 09:57:42;;;;;;;4.63;3.80;;;;;;;;;;10381307;28;20087;-78
2021/12/21 10:02:42;;;;;;;6.50;3.65;;;;;;;;;;10370878;28;20088;-77
2021/12/21 10:07:43;;;;;;;8.32;3.58;;;;;;;;;;10353897;28;20042;-78
2021/12/21 10:12:47;;;;;;;5.43;3.67;;;;;;;;;;10360917;28;20034;-77
2021/12/21 10:17:57;;;;;;;9.52;3.53;;;;;;;;;;10372409;28;20174;-78
2021/12/21 10:22:58;;;;;;;5.10;3.30;;;;;;;;;;10372395;28;20046;-79
2021/12/21 10:27:58;;;;;;;5.63;3.63;;;;;;;;;;10364373;28;20068;-80
2021/12/21 10:33:01;;;;;;;7.63;3.23;;;;;;;;;;10359812;28;20042;-79
2021/12/21 10:38:04;;;;;;;4.47;3.00;;;;;;;;;;10366801;28;20976;-78
2021/12/21 10:43:07;;;;;;;7.40;4.00;;;;;;;;;;10374953;28;20042;-78
2021/12/21 10:48:18;;;;;;;5.20;3.50;;;;;;;;;;10348785;28;20030;-78
2021/12/21 10:53:23;;;;;;;5.72;3.78;;;;;;;;;;10363406;28;20033;-78
2021/12/21 10:58:27;;;;;;;5.75;3.90;;;;;;;;;;10389245;28;20460;-78
2021/12/21 11:03:33;;;;;;;5.53;3.47;;;;;;;;;;10385983;28;20109;-79
2021/12/21 11:08:40;;;;;;;6.57;4.30;;;;;;;;;;10386652;28;20093;-76
2021/12/21 11:13:41;;;;;;;6.30;3.60;;;;;;;;;;10388066;28;20032;-80
2021/12/21 11:18:41;;;;;;;13.33;4.23;;;;;;;;;;10386988;28;20424;-80
2021/12/21 11:23:42;;;;;;;5.57;3.80;;;;;;;;;;10387370;28;20529;-78
2021/12/21 11:28:42;;;;;;;6.93;3.88;;;;;;;;;;10388124;28;20052;-79
2021/12/21 11:33:44;;;;;;;5.18;3.42;;;;;;;;;;10369992;28;20068;-78
2021/12/21 11:38:45;;;;;;;7.15;3.40;;;;;;;;;;10384309;28;20033;-77
2021/12/21 11:44:10;;;;;;;6.40;3.28;;;;;;;;;;10384197;28;20044;-78
2021/12/21 11:49:17;;;;;;;5.10;3.70;;;;;;;;;;10341241;28;20718;-78
2021/12/21 11:54:22;;;;;;;7.72;4.88;;;;;;;;;;10368582;28;20034;-78
2021/12/21 11:59:22;;;;;;;8.63;3.40;;;;;;;;;;10386239;28;20460;-78
2021/12/21 12:04:23;;;;;;;9.02;4.07;;;;;;;;;;10382974;28;20033;-78
2021/12/21 12:09:32;;;;;;;5.93;2.88;;;;;;;;;;10379143;28;20125;-78
2021/12/21 12:14:35;;;;;;;7.93;3.75;;;;;;;;;;10382158;28;20038;-78
2021/12/21 12:19:38;;;;;;;4.88;3.15;;;;;;;;;;10368455;28;20033;-79
2021/12/21 12:24:40;;;;;;;9.20;3.60;;;;;;;;;;10385122;28;20476;-78
2021/12/21 12:29:57;;;;;;;4.68;3.08;;;;;;;;;;10385416;28;20036;-78
2021/12/21 12:35:02;;;;;;;6.10;3.83;;;;;;;;;;10380547;28;20479;-78
2021/12/21 12:40:09;;;;;;;6.78;3.28;;;;;;;;;;10373348;28;20030;-78
2021/12/21 12:45:19;;;;;;;7.78;3.65;;;;;;;;;;10371788;28;20036;-79
2021/12/21 12:50:24;;;;;;;5.53;3.63;;;;;;;;;;10370329;28;20092;-79
2021/12/21 12:55:39;;;;;;;4.15;3.20;;;;;;;;;;10351605;28;20074;-78
2021/12/21 13:00:45;;;;;;;9.00;3.55;;;;;;;;;;10355026;28;20460;-79
2021/12/21 13:05:53;;;;;;;5.30;3.63;;;;;;;;;;10357685;28;20064;-78
2021/12/21 13:10:56;;;;;;;6.23;3.47;;;;;;;;;;10365548;28;20088;-78
2021/12/21 13:15:56;;;;;;;7.57;3.88;;;;;;;;;;10371857;28;20030;-78
2021/12/21 13:20:59;;;;;;;7.47;3.40;;;;;;;;;;10382395;28;20049;-78
2021/12/21 13:26:05;;;;;;;6.63;3.72;;;;;;;;;;10382911;28;20455;-78
2021/12/21 13:31:06;;;;;;;8.23;3.40;;;;;;;;;;10382197;28;20129;-82
2021/12/21 13:36:08;;;;;;;5.10;3.35;;;;;;;;;;10362874;28;20042;-79
2021/12/21 13:41:12;;;;;;;9.07;3.65;;;;;;;;;;10363314;28;20088;-79
2021/12/21 13:46:12;;;;;;;10.32;3.67;;;;;;;;;;10368146;28;20058;-79
2021/12/21 13:51:15;;;;;;;7.73;3.83;;;;;;;;;;10369342;28;20057;-78
2021/12/21 13:56:24;;;;;;;7.13;3.22;;;;;;;;;;10369649;28;20452;-79
2021/12/21 14:01:28;;;;;;;;;;;;;;;;;;10364000;28;20464;-79
2021/12/21 14:06:30;;;;;;;13.57;3.50;;;;;;;;;;10380378;28;19913;-80
2021/12/21 14:11:32;;;;;;;7.75;3.50;;;;;;;;;;10377117;28;20025;-78
2021/12/21 14:16:39;;;;;;;8.38;4.13;;;;;;;;;;10387479;28;20080;-80
2021/12/21 14:21:40;;;;;;;7.03;3.40;;;;;;;;;;10389389;28;20049;-79
2021/12/21 14:26:52;;;;;;;6.53;3.33;;;;;;;;;;10389604;28;20045;-79
2021/12/21 14:37:14;;;;;;;5.35;3.53;;;;;;;;;;10391287;28;20089;-79
2021/12/21 14:42:20;;;;;;;6.82;3.28;;;;;;;;;;10390165;28;20530;-79
2021/12/21 14:47:21;;;;;;;4.70;3.42;;;;;;;;;;10389988;28;20022;-80
2021/12/21 14:52:40;;;;;;;10.75;3.30;;;;;;;;;;10383586;28;20030;-78
2021/12/21 14:57:51;;;;;;;17.48;3.75;;;;;;;;;;10381676;28;20541;-79
2021/12/21 15:02:54;;;;;;;10.40;3.53;;;;;;;;;;10364495;28;20038;-78
2021/12/21 15:07:56;;;;;;;6.43;3.45;;;;;;;;;;10390460;28;20073;-79
2021/12/21 15:12:57;;;;;;;7.03;3.53;;;;;;;;;;10390148;28;20037;-79
2021/12/21 15:17:58;;;;;;;7.88;3.70;;;;;;;;;;10389945;28;20030;-79
2021/12/21 15:22:58;;;;;;;5.88;3.67;;;;;;;;;;10390601;28;20129;-76
2021/12/21 15:27:59;;;;;;;5.10;3.40;;;;;;;;;;10389893;28;20113;-78
2021/12/21 15:32:59;;;;;;;5.15;3.45;;;;;;;;;;10390007;28;20033;-79
2021/12/21 15:38:01;;;;;;;8.95;3.65;;;;;;;;;;10389696;28;20072;-78
2021/12/21 15:43:06;;;;;;;5.70;3.72;;;;;;;;;;10387561;28;20036;-77
2021/12/21 15:48:06;;;;;;;5.13;3.28;;;;;;;;;;10390032;28;20041;-78
2021/12/21 15:53:07;;;;;;;5.07;3.20;;;;;;;;;;10388122;28;20030;-78
2021/12/21 15:58:07;;;;;;;6.25;3.78;;;;;;;;;;10388068;28;20093;-77
2021/12/21 16:03:07;;;;;;;7.40;3.70;;;;;;;;;;10388136;28;20045;-78
2021/12/21 16:08:08;;;;;;;6.10;3.60;;;;;;;;;;10388105;28;21034;-78
2021/12/21 16:13:08;;;;;;;4.13;2.97;;;;;;;;;;10385670;28;20085;-78
2021/12/21 16:18:09;;;;;;;5.17;3.53;;;;;;;;;;10387715;28;20506;-78
2021/12/21 16:23:09;;;;;;;5.50;3.50;;;;;;;;;;10386826;28;20530;-79
2021/12/21 16:28:09;;;;;;;6.03;3.83;;;;;;;;;;10386614;28;20454;-80
2021/12/21 16:33:10;;;;;;;8.63;3.60;;;;;;;;;;10385714;28;20026;-80
2021/12/21 16:38:11;;;;;;;5.10;3.47;;;;;;;;;;10387370;28;20041;-79
2021/12/21 16:43:13;;;;;;;8.23;3.83;;;;;;;;;;10386454;28;20468;-78
2021/12/21 16:48:14;;;;;;;5.72;3.90;;;;;;;;;;10359766;28;20097;-81
2021/12/21 16:53:14;;;;;;;6.47;3.60;;;;;;;;;;10366025;28;20087;-79
2021/12/21 16:58:23;;;;;;;6.40;4.10;;;;;;;;;;10370272;28;20042;-79
2021/12/21 17:03:24;;;;;;;7.20;4.10;;;;;;;;;;10378746;28;20451;-78
2021/12/21 17:08:28;;;;;;;3.90;3.17;;;;;;;;;;10353266;28;20038;-78
2021/12/21 17:13:29;;;;;;;6.43;4.22;;;;;;;;;;10362807;28;20130;-79
2021/12/21 17:18:29;;;;;;;5.93;3.83;;;;;;;;;;10365982;28;20420;-80
2021/12/21 17:23:30;;;;;;;5.30;4.20;;;;;;;;;;10379390;28;20415;-79
2021/12/21 17:28:31;;;;;;;8.73;4.47;;;;;;;;;;10377034;28;20031;-78
2021/12/21 17:33:33;;;;;;;8.85;4.43;;;;;;;;;;10361408;28;20246;-77
2021/12/21 17:38:34;;;;;;;7.57;4.30;;;;;;;;;;10367600;28;20033;-79
2021/12/21 17:43:35;;;;;;;8.02;4.30;;;;;;;;;;10364594;28;20361;-82
2021/12/21 17:48:36;;;;;;;9.07;4.53;;;;;;;;;;10376448;28;20038;-79
2021/12/21 17:53:37;;;;;;;6.03;4.05;;;;;;;;;;10372838;28;20045;-79
2021/12/21 17:58:37;;;;;;;8.15;4.60;;;;;;;;;;10376341;28;20038;-78
2021/12/21 18:03:38;;;;;;;6.33;4.77;;;;;;;;;;10375482;28;20029;-79
2021/12/21 18:08:38;;;;;;;10.13;4.53;;;;;;;;;;10355613;28;20445;-78
2021/12/21 18:13:39;;;;;;;9.63;5.00;;;;;;;;;;10364868;28;20483;-77
2021/12/21 18:18:39;;;;;;;9.43;5.05;;;;;;;;;;10376836;28;20045;-79
2021/12/21 18:23:39;;;;;;;5.73;4.33;;;;;;;;;;10385561;28;20057;-80
2021/12/21 18:28:40;;;;;;;10.88;4.90;;;;;;;;;;10386014;28;20460;-80
2021/12/21 18:33:40;;;;;;;6.60;4.43;;;;;;;;;;10377605;28;20038;-76
2021/12/21 18:38:46;;;;;;;7.43;4.85;;;;;;;;;;10348061;28;20061;-80
2021/12/21 18:43:50;;;;;;;10.10;4.45;;;;;;;;;;10396529;28;20117;-78
2021/12/21 18:48:50;;;;;;;9.90;4.80;;;;;;;;;;10383795;28;20464;-77
2021/12/21 18:53:51;;;;;;;7.17;4.63;;;;;;;;;;10363100;28;20062;-76
2021/12/21 18:58:53;;;;;;;13.15;5.38;;;;;;;;;;10362360;28;20511;-78
2021/12/21 19:03:53;;;;;;;7.53;5.07;;;;;;;;;;10389823;28;20034;-78
2021/12/21 19:08:55;;;;;;;7.87;4.80;;;;;;;;;;10370732;28;20379;-77
2021/12/21 19:13:55;;;;;;;7.82;4.88;;;;;;;;;;10370365;28;20452;-78
2021/12/21 19:18:59;;;;;;;9.90;5.50;;;;;;;;;;10387895;28;20034;-77
2021/12/21 19:23:59;;;;;;;7.18;4.72;;;;;;;;;;10349824;28;20053;-79
2021/12/21 19:29:01;;;;;;;18.38;6.45;;;;;;;;;;10332450;28;20026;-79
2021/12/21 19:34:02;;;;;;;13.00;5.00;;;;;;;;;;10389186;28;20037;-79
2021/12/21 19:39:04;;;;;;;9.90;5.22;;;;;;;;;;10385998;28;20038;-78
2021/12/21 19:44:05;;;;;;;10.60;4.72;;;;;;;;;;10368982;28;20034;-78
2021/12/21 19:49:05;;;;;;;14.60;5.10;;;;;;;;;;10387119;28;20046;-78
2021/12/21 19:54:06;;;;;;;13.15;4.85;;;;;;;;;;10382221;28;20107;-78
2021/12/21 19:59:06;;;;;;;9.73;4.97;;;;;;;;;;10388717;28;20029;-80
2021/12/21 20:04:07;;;;;;;11.18;5.88;;;;;;;;;;10388364;28;20462;-79
2021/12/21 20:09:08;;;;;;;13.57;5.35;;;;;;;;;;10388508;28;20037;-80
2021/12/21 20:14:08;;;;;;;10.48;5.05;;;;;;;;;;10387519;28;20040;-78
2021/12/21 20:19:09;;;;;;;8.75;5.10;;;;;;;;;;10387664;28;20048;-78
2021/12/21 20:24:09;;;;;;;6.70;5.10;;;;;;;;;;10389005;23;20058;-77
2021/12/21 20:29:10;;;;;;;17.02;5.35;;;;;;;;;;10335582;28;20125;-77
2021/12/21 20:34:10;;;;;;;14.23;5.25;;;;;;;;;;10366401;28;20044;-77
2021/12/21 20:39:11;;;;;;;11.30;4.97;;;;;;;;;;10375511;28;20029;-77
2021/12/21 20:44:11;;;;;;;8.52;5.20;;;;;;;;;;10360238;28;20069;-77
2021/12/21 20:49:12;;;;;;;9.25;5.10;;;;;;;;;;10335176;28;20027;-77
2021/12/21 20:54:13;;;;;;;14.85;5.32;;;;;;;;;;10333886;28;20034;-77
2021/12/21 20:59:14;;;;;;;14.05;5.28;;;;;;;;;;10341620;28;20068;-78
2021/12/21 21:04:16;;;;;;;18.67;5.20;;;;;;;;;;10361080;28;20038;-76
2021/12/21 21:09:16;;;;;;;10.60;5.38;;;;;;;;;;10334081;28;20073;-78
2021/12/21 21:14:17;;;;;;;7.68;4.75;;;;;;;;;;10333583;28;20116;-79
2021/12/21 21:19:17;;;;;;;7.97;4.90;;;;;;;;;;10328880;28;20050;-77
2021/12/21 21:24:17;;;;;;;7.10;4.53;;;;;;;;;;10329213;28;20104;-75
2021/12/21 21:29:18;;;;;;;5.57;4.32;;;;;;;;;;10334451;28;20471;-76
2021/12/21 21:34:18;;;;;;;8.80;4.82;;;;;;;;;;10369189;28;20046;-76
2021/12/21 21:39:19;;;;;;;6.95;4.57;;;;;;;;;;10368328;28;20030;-76
2021/12/21 21:44:19;;;;;;;8.80;4.87;;;;;;;;;;10333289;28;20031;-76
2021/12/21 21:49:20;;;;;;;7.93;4.97;;;;;;;;;;10336173;28;20440;-77
2021/12/21 21:54:20;;;;;;;9.40;5.28;;;;;;;;;;10341302;28;20041;-76
2021/12/21 21:59:21;;;;;;;8.48;4.55;;;;;;;;;;10342360;28;20037;-77
2021/12/21 22:04:21;;;;;;;7.43;4.10;;;;;;;;;;10360157;28;20113;-76
2021/12/21 22:09:22;;;;;;;9.80;4.43;;;;;;;;;;10381391;28;20062;-77
2021/12/21 22:14:23;;;;;;;13.57;4.97;;;;;;;;;;10380929;28;20440;-77
2021/12/21 22:19:23;;;;;;;8.60;4.63;;;;;;;;;;10335403;28;20042;-77
2021/12/21 22:24:23;;;;;;;11.80;4.63;;;;;;;;;;10337153;28;20042;-77
2021/12/21 22:29:24;;;;;;;15.85;5.28;;;;;;;;;;10338806;28;20034;-74
2021/12/21 22:34:25;;;;;;;10.67;5.20;;;;;;;;;;10339786;28;20117;-74
2021/12/21 22:39:25;;;;;;;12.23;5.28;;;;;;;;;;10338058;28;20440;-75
2021/12/21 22:44:25;;;;;;;9.63;4.43;;;;;;;;;;10338819;28;20022;-75
2021/12/21 22:49:26;;;;;;;12.27;4.87;;;;;;;;;;10348145;28;20989;-77
2021/12/21 22:54:26;;;;;;;10.33;4.77;;;;;;;;;;10342309;28;20544;-74
2021/12/21 22:59:27;;;;;;;14.97;5.37;;;;;;;;;;10337676;28;20440;-77
2021/12/21 23:04:27;;;;;;;10.65;4.97;;;;;;;;;;10363731;28;21082;-78
2021/12/21 23:09:59;;;;;;;10.02;5.18;;;;;;;;;;10380418;28;20041;-75
2021/12/21 23:15:34;;;;;;;14.50;5.00;;;;;;;;;;10377651;28;20034;-76
2021/12/21 23:20:36;;;;;;;6.88;4.80;;;;;;;;;;10326196;28;20034;-75
2021/12/21 23:25:40;;;;;;;13.18;4.80;;;;;;;;;;10338795;28;20034;-75
2021/12/21 23:30:41;;;;;;;11.30;4.32;;;;;;;;;;10331897;28;20404;-76
2021/12/21 23:35:41;;;;;;;8.18;4.80;;;;;;;;;;10332354;28;20042;-76
2021/12/21 23:40:42;;;;;;;9.10;4.32;;;;;;;;;;10329032;28;20056;-75
2021/12/21 23:49:11;;;;;;;11.35;4.10;;;;;;;;;;10421656;28;104436;-55
2021/12/21 23:54:12;;;;;;;10.50;4.68;;;;;;;;;;10354326;28;20030;-55
2021/12/21 23:59:13;;;;;;;8.82;4.50;;;;;;;;;;10359177;28;20050;-54
